Terminal Aerodrome Forecast
Issued by NWS Omaha/Valley, NE

Home | Current Version | Previous Version | Text Only | Print | Product List | Glossary On
Versions: 1 2 3 4 5 6 7 8 9 10 11 12 13 14 15 16 17 18 19 20 21 22 23 24
000
FTUS43 KOAX 300107 AAA
TAFLNK
TAF AMD
KLNK 300107Z 3001/3024 34020G28KT P6SM SCT015 BKN025
      TEMPO 3001/3003 BKN015
     FM300300 34018G26KT P6SM OVC015
     FM301400 35016G21KT P6SM BKN025
     FM301800 36014KT P6SM SKC=

USA.gov is the U.S. government's official web portal to all federal, state and local government web resources and services.